Time;durP1;ratioP1;P1;durP2;ratioP2;P2;SDS_P1;SDS_P2;PMS_P1;PMS_P2;Temp;Humidity;BMP_temperature;BMP_pressure;BME280_temperature;BME280_humidity;BME280_pressure;Samples;Min_cycle;Max_cycle;Signal;HPM_P1;HPM_P2
2022/11/25 09:26:08;;;;;;;7.23;1.33;;;9.10;99.90;;;;;;4951121;29;20227;-74
2022/11/25 09:28:35;;;;;;;5.70;1.23;;;9.00;99.90;;;;;;4954606;28;20196;-74
2022/11/25 09:31:07;;;;;;;6.30;1.63;;;9.00;99.90;;;;;;4946832;28;20235;-74
2022/11/25 09:33:34;;;;;;;5.83;1.07;;;9.00;99.90;;;;;;4935451;29;20213;-74
2022/11/25 09:36:01;;;;;;;3.43;1.23;;;9.00;99.90;;;;;;4935535;29;20204;-74
2022/11/25 09:38:27;;;;;;;6.73;1.43;;;9.00;99.90;;;;;;4935383;29;20663;-73
2022/11/25 09:40:59;;;;;;;4.93;1.40;;;9.00;99.90;;;;;;4935032;29;20221;-73
2022/11/25 09:46:50;;;;;;;8.20;1.33;;;9.10;99.90;;;;;;4935159;29;20774;-73
2022/11/25 09:49:40;;;;;;;7.43;1.00;;;9.10;99.90;;;;;;4935539;29;20219;-74
2022/11/25 09:52:17;;;;;;;2.87;1.10;;;9.20;99.90;;;;;;4935585;29;20237;-73
2022/11/25 09:54:48;;;;;;;4.80;2.67;;;9.20;99.90;;;;;;4935861;29;20212;-73
2022/11/25 09:57:26;;;;;;;6.67;1.23;;;9.30;99.90;;;;;;4935934;29;20263;-73
2022/11/25 10:00:05;;;;;;;2.93;0.90;;;9.30;99.90;;;;;;4935419;29;20568;-73
2022/11/25 10:02:37;;;;;;;2.93;0.70;;;9.40;99.90;;;;;;4935567;29;20215;-72
2022/11/25 10:05:09;;;;;;;3.70;0.83;;;9.40;99.90;;;;;;4935424;29;20291;-73
2022/11/25 10:07:41;;;;;;;6.23;1.00;;;9.50;99.90;;;;;;4935330;29;20209;-72
2022/11/25 10:10:19;;;;;;;1.37;0.90;;;9.50;99.90;;;;;;4935738;29;20209;-71
2022/11/25 10:12:49;;;;;;;2.67;0.63;;;9.70;99.90;;;;;;4935346;29;20213;-70
2022/11/25 10:15:21;;;;;;;3.80;0.80;;;9.70;99.90;;;;;;4935291;29;20215;-70
2022/11/25 10:17:49;;;;;;;2.90;0.90;;;9.80;99.90;;;;;;4928114;29;20201;-78
2022/11/25 10:20:21;;;;;;;1.17;0.50;;;9.90;99.90;;;;;;4917618;29;20237;-71
2022/11/25 10:22:51;;;;;;;4.47;0.73;;;9.90;99.90;;;;;;4935319;29;20213;-72
2022/11/25 10:25:21;;;;;;;2.20;0.63;;;10.00;99.90;;;;;;4935055;29;20219;-70
2022/11/25 10:27:53;;;;;;;2.43;0.50;;;10.00;99.90;;;;;;4935305;29;20205;-80
2022/11/25 10:30:23;;;;;;;1.20;0.50;;;10.00;99.90;;;;;;4935436;29;20205;-69
2022/11/25 10:32:54;;;;;;;2.07;0.77;;;10.00;99.90;;;;;;4935504;29;20205;-71
2022/11/25 10:35:28;;;;;;;1.83;0.70;;;10.10;99.90;;;;;;4936649;29;20231;-71
2022/11/25 10:37:58;;;;;;;2.97;0.70;;;10.20;99.90;;;;;;4938829;29;20208;-71
2022/11/25 10:40:25;;;;;;;3.23;1.10;;;10.20;99.90;;;;;;4933058;29;20783;-77
2022/11/25 10:42:51;;;;;;;4.93;0.60;;;10.20;99.90;;;;;;4918342;29;20296;-70
2022/11/25 10:45:25;;;;;;;2.67;0.50;;;10.20;99.90;;;;;;4918630;29;20220;-71
2022/11/25 10:48:13;;;;;;;3.23;0.87;;;10.30;99.90;;;;;;4917542;29;20260;-69
2022/11/25 10:50:59;;;;;;;2.10;0.70;;;10.30;99.90;;;;;;4918057;29;20230;-72
2022/11/25 10:53:28;;;;;;;6.30;0.70;;;10.40;99.90;;;;;;4918279;29;20209;-72
2022/11/25 10:56:02;;;;;;;2.20;0.43;;;10.50;99.90;;;;;;4917905;29;20210;-71
2022/11/25 10:58:32;;;;;;;2.27;0.60;;;10.50;99.90;;;;;;4918266;29;20241;-71
2022/11/25 11:01:07;;;;;;;5.30;0.70;;;10.50;99.90;;;;;;4917939;29;20248;-72
2022/11/25 11:03:34;;;;;;;4.37;1.03;;;10.50;99.90;;;;;;4917568;29;20296;-72
2022/11/25 11:06:01;;;;;;;2.40;0.50;;;10.60;99.90;;;;;;4918357;29;20216;-72
2022/11/25 11:08:36;;;;;;;5.07;0.93;;;10.60;99.90;;;;;;4918191;29;20233;-72
2022/11/25 11:11:18;;;;;;;5.17;0.70;;;10.50;99.90;;;;;;4917255;29;20291;-74
2022/11/25 11:13:46;;;;;;;2.10;0.70;;;10.60;99.90;;;;;;4917595;29;20216;-75
2022/11/25 11:16:26;;;;;;;4.67;0.77;;;10.70;99.90;;;;;;4917590;29;20553;-71
2022/11/25 11:18:54;;;;;;;3.50;0.73;;;10.70;99.90;;;;;;4933438;29;20221;-72
2022/11/25 11:21:24;;;;;;;4.87;0.90;;;10.70;99.90;;;;;;4936480;29;20723;-74
2022/11/25 11:23:53;;;;;;;3.63;0.90;;;10.70;99.90;;;;;;4936831;29;20219;-76
2022/11/25 11:26:23;;;;;;;6.07;0.90;;;10.70;99.90;;;;;;4935828;29;20304;-76
2022/11/25 11:29:02;;;;;;;4.30;1.17;;;10.70;99.90;;;;;;4936916;29;20291;-74
2022/11/25 11:31:34;;;;;;;3.20;0.70;;;10.70;99.90;;;;;;4936527;29;20319;-73
2022/11/25 11:34:22;;;;;;;4.20;0.90;;;10.90;99.90;;;;;;4936232;29;20308;-76
2022/11/25 11:37:06;;;;;;;2.93;0.60;;;10.90;99.90;;;;;;4936218;29;20205;-71
2022/11/25 11:39:59;;;;;;;3.87;0.97;;;11.00;99.90;;;;;;4935674;29;20430;-72
2022/11/25 11:42:37;;;;;;;2.20;0.80;;;11.00;99.90;;;;;;4936133;29;20237;-74
2022/11/25 11:45:15;;;;;;;6.43;0.90;;;11.00;99.90;;;;;;4936107;29;20210;-74
2022/11/25 11:47:54;;;;;;;6.17;1.07;;;11.10;99.90;;;;;;4935109;29;20303;-74
2022/11/25 11:50:28;;;;;;;2.50;1.00;;;11.00;99.90;;;;;;4936208;29;20224;-72
2022/11/25 11:53:04;;;;;;;4.13;1.00;;;11.10;99.90;;;;;;4936463;29;20299;-74
2022/11/25 11:55:50;;;;;;;3.90;0.87;;;11.20;99.90;;;;;;4937150;29;20219;-72
2022/11/25 11:58:27;;;;;;;7.90;1.00;;;11.20;99.90;;;;;;4937261;29;20208;-72
2022/11/25 12:01:03;;;;;;;4.60;0.60;;;11.10;99.90;;;;;;4936832;29;20240;-73
2022/11/25 12:03:38;;;;;;;5.07;0.93;;;11.10;99.90;;;;;;4937224;29;20213;-72
2022/11/25 12:06:07;;;;;;;6.57;0.97;;;11.00;99.90;;;;;;4937064;29;20296;-74
2022/11/25 12:08:42;;;;;;;5.07;1.03;;;10.90;99.90;;;;;;4937246;29;20205;-73
2022/11/25 12:11:13;;;;;;;4.87;1.30;;;10.90;99.90;;;;;;4936988;29;20225;-75
2022/11/25 12:13:47;;;;;;;3.47;0.90;;;11.00;99.90;;;;;;4936913;29;20295;-72
2022/11/25 12:16:19;;;;;;;4.90;0.97;;;11.10;99.90;;;;;;4936881;29;20215;-72
2022/11/25 12:18:55;;;;;;;3.63;0.70;;;11.10;99.90;;;;;;4937139;29;20209;-74
2022/11/25 12:21:37;;;;;;;6.00;0.77;;;11.10;99.90;;;;;;4936629;29;20275;-72
2022/11/25 12:24:08;;;;;;;5.27;1.03;;;11.20;99.90;;;;;;4936617;29;20656;-74
2022/11/25 12:26:43;;;;;;;2.87;0.60;;;11.20;99.90;;;;;;4936502;29;20227;-74
2022/11/25 12:29:15;;;;;;;6.77;0.87;;;11.30;99.90;;;;;;4936438;29;20212;-75
2022/11/25 12:31:49;;;;;;;4.17;1.10;;;11.40;99.90;;;;;;4936417;29;20239;-74
2022/11/25 12:34:26;;;;;;;6.00;0.80;;;11.30;99.90;;;;;;4936610;29;20664;-74
2022/11/25 12:37:02;;;;;;;4.47;1.00;;;11.40;99.90;;;;;;4936815;29;20587;-74
2022/11/25 12:39:35;;;;;;;3.83;0.97;;;11.40;99.90;;;;;;4936297;29;20243;-73
2022/11/25 12:42:05;;;;;;;8.37;1.07;;;11.30;99.90;;;;;;4936472;29;20236;-73
2022/11/25 12:44:44;;;;;;;4.70;1.07;;;11.30;99.90;;;;;;4936240;29;20216;-73
2022/11/25 12:47:11;;;;;;;5.40;0.77;;;11.30;99.90;;;;;;4936040;29;20217;-72
2022/11/25 12:49:43;;;;;;;5.30;0.90;;;11.30;99.90;;;;;;4936221;29;20209;-73
2022/11/25 12:52:37;;;;;;;3.60;0.70;;;11.40;99.90;;;;;;4936158;29;20225;-72
2022/11/25 12:55:17;;;;;;;2.67;0.80;;;11.40;99.90;;;;;;4936195;29;20215;-73
2022/11/25 12:58:17;;;;;;;3.90;0.70;;;11.50;99.90;;;;;;4936102;29;20267;-74
2022/11/25 13:01:07;;;;;;;3.53;0.80;;;11.50;99.90;;;;;;4936074;29;20352;-73
2022/11/25 13:03:59;;;;;;;7.83;1.03;;;11.50;99.90;;;;;;4936292;29;20223;-73
2022/11/25 13:06:52;;;;;;;4.43;1.10;;;11.50;99.90;;;;;;4935867;29;20224;-73
2022/11/25 13:09:40;;;;;;;3.60;1.03;;;11.50;99.90;;;;;;4935967;29;20215;-73
2022/11/25 13:12:22;;;;;;;7.63;0.97;;;11.60;99.90;;;;;;4935698;29;20320;-73
2022/11/25 13:15:20;;;;;;;7.33;0.90;;;11.80;99.90;;;;;;4935757;29;20219;-73
2022/11/25 13:17:49;;;;;;;7.93;1.40;;;11.90;99.90;;;;;;4936033;29;20204;-73
2022/11/25 13:20:45;;;;;;;3.60;0.80;;;11.80;99.90;;;;;;4935717;29;20250;-73
2022/11/25 13:23:29;;;;;;;6.63;0.90;;;11.80;99.90;;;;;;4935737;29;20212;-73
2022/11/25 13:26:30;;;;;;;5.07;1.37;;;11.80;99.90;;;;;;4935618;29;20591;-73
2022/11/25 13:28:58;;;;;;;4.40;0.97;;;11.80;99.90;;;;;;4935741;29;20208;-73
2022/11/25 13:31:30;;;;;;;6.17;1.40;;;11.80;99.90;;;;;;4935523;29;20325;-73
2022/11/25 13:34:21;;;;;;;3.50;0.90;;;11.90;99.90;;;;;;4936004;29;20567;-73
2022/11/25 13:36:49;;;;;;;5.40;0.93;;;11.80;99.90;;;;;;4935910;29;20215;-73
2022/11/25 13:39:28;;;;;;;3.23;1.30;;;12.00;99.90;;;;;;4935896;29;20216;-72
2022/11/25 13:42:00;;;;;;;4.43;1.00;;;12.10;99.90;;;;;;4935359;29;20259;-74
2022/11/25 13:44:31;;;;;;;5.07;1.17;;;12.10;99.90;;;;;;4936062;29;20567;-73
2022/11/25 13:47:01;;;;;;;5.20;0.87;;;12.20;99.90;;;;;;4936002;29;20220;-74
2022/11/25 13:49:44;;;;;;;4.93;1.13;;;12.20;99.90;;;;;;4935722;29;20301;-74
2022/11/25 13:52:32;;;;;;;7.57;1.40;;;12.20;99.90;;;;;;4935523;29;20234;-74
2022/11/25 13:55:02;;;;;;;10.37;1.30;;;12.20;99.90;;;;;;4935743;29;20212;-74
2022/11/25 13:57:32;;;;;;;3.83;0.77;;;12.30;99.90;;;;;;4935595;29;20307;-74
2022/11/25 14:00:01;;;;;;;3.80;0.97;;;12.30;99.90;;;;;;4935712;29;20267;-74
2022/11/25 14:02:34;;;;;;;4.00;1.20;;;12.30;99.90;;;;;;4935358;29;20228;-73
2022/11/25 14:05:15;;;;;;;4.97;0.80;;;12.20;99.90;;;;;;4935525;29;20208;-74
2022/11/25 14:07:51;;;;;;;6.07;0.90;;;12.20;99.90;;;;;;4935797;29;20212;-74
2022/11/25 14:10:44;;;;;;;5.43;1.30;;;12.10;99.90;;;;;;4937468;29;20212;-74
2022/11/25 14:13:34;;;;;;;4.47;0.80;;;12.10;99.90;;;;;;4938897;29;20667;-73
2022/11/25 14:16:12;;;;;;;5.53;1.10;;;12.10;99.90;;;;;;4926549;29;20304;-76
2022/11/25 14:19:06;;;;;;;4.40;1.17;;;12.20;99.90;;;;;;4938459;29;20234;-73
2022/11/25 14:21:50;;;;;;;4.30;1.50;;;12.10;99.90;;;;;;4938446;29;20278;-74
2022/11/25 14:24:28;;;;;;;6.40;1.40;;;12.00;99.90;;;;;;4938957;29;20223;-73
2022/11/25 14:26:58;;;;;;;7.93;1.30;;;11.80;99.90;;;;;;4938732;29;20204;-74
2022/11/25 14:29:29;;;;;;;3.93;1.20;;;11.70;99.90;;;;;;4938978;29;20749;-75
2022/11/25 14:32:00;;;;;;;7.70;0.80;;;11.60;99.90;;;;;;4938967;29;20237;-75
2022/11/25 14:34:31;;;;;;;7.37;1.00;;;11.50;99.90;;;;;;4940503;29;20295;-74
2022/11/25 14:37:07;;;;;;;5.30;1.20;;;11.50;99.90;;;;;;4941166;29;20212;-72
2022/11/25 14:39:40;;;;;;;7.03;1.17;;;11.50;99.90;;;;;;4943258;29;20209;-74
2022/11/25 14:42:10;;;;;;;6.37;0.93;;;11.40;99.90;;;;;;4938484;29;20700;-72
2022/11/25 14:44:44;;;;;;;6.60;1.43;;;11.30;99.90;;;;;;4938716;29;20311;-71
2022/11/25 14:47:11;;;;;;;5.60;0.80;;;11.40;99.90;;;;;;4938363;29;20204;-73
2022/11/25 14:49:44;;;;;;;3.43;1.00;;;11.30;99.90;;;;;;4938582;29;20223;-73
2022/11/25 14:52:17;;;;;;;4.07;1.20;;;11.30;99.90;;;;;;4938497;29;20232;-73
2022/11/25 14:54:45;;;;;;;5.23;1.70;;;11.30;99.90;;;;;;4938416;29;20652;-74
2022/11/25 14:57:13;;;;;;;2.23;0.90;;;11.30;99.90;;;;;;4938593;29;20223;-74
2022/11/25 14:59:40;;;;;;;5.23;0.90;;;11.20;99.90;;;;;;4938494;29;20231;-72
2022/11/25 15:02:24;;;;;;;2.80;0.97;;;11.20;99.90;;;;;;4938337;29;20244;-74
2022/11/25 15:04:51;;;;;;;4.97;1.40;;;11.20;99.90;;;;;;4938198;29;20219;-73
2022/11/25 15:07:21;;;;;;;4.20;1.10;;;11.10;99.90;;;;;;4938395;29;20284;-74
2022/11/25 15:09:48;;;;;;;5.77;1.13;;;11.00;99.90;;;;;;4938100;29;20656;-74
2022/11/25 15:12:20;;;;;;;5.97;1.43;;;11.10;99.90;;;;;;4938464;29;20916;-73
2022/11/25 15:14:50;;;;;;;5.30;1.27;;;11.10;99.90;;;;;;4938358;29;20217;-73
2022/11/25 15:17:25;;;;;;;5.30;1.90;;;11.10;99.90;;;;;;4938190;29;20611;-74
2022/11/25 15:19:52;;;;;;;6.17;2.10;;;11.00;99.90;;;;;;4938150;29;20710;-73
2022/11/25 15:22:20;;;;;;;6.00;1.33;;;11.00;99.90;;;;;;4937556;29;20249;-72
2022/11/25 15:24:49;;;;;;;4.37;1.50;;;11.00;99.90;;;;;;4937936;29;20224;-72
2022/11/25 15:27:20;;;;;;;5.00;1.37;;;11.10;99.90;;;;;;4937649;29;20219;-73
2022/11/25 15:29:48;;;;;;;7.40;1.30;;;11.10;99.90;;;;;;4937804;29;20205;-73
2022/11/25 15:32:16;;;;;;;5.73;1.97;;;11.10;99.90;;;;;;4937634;29;20239;-73
2022/11/25 15:34:44;;;;;;;13.80;1.53;;;11.10;99.90;;;;;;4938010;29;20200;-73
2022/11/25 15:37:12;;;;;;;5.90;1.97;;;11.00;99.90;;;;;;4937689;29;20211;-74
2022/11/25 15:39:39;;;;;;;7.47;1.77;;;11.00;99.90;;;;;;4937467;29;20215;-73
2022/11/25 15:42:11;;;;;;;5.80;1.60;;;10.90;99.90;;;;;;4937568;29;20707;-73
2022/11/25 15:44:46;;;;;;;3.97;1.70;;;10.80;99.90;;;;;;4937602;29;20295;-73
2022/11/25 15:47:22;;;;;;;5.33;1.47;;;10.70;99.90;;;;;;4937607;29;20215;-73
2022/11/25 15:50:00;;;;;;;4.03;1.33;;;10.70;99.90;;;;;;4937583;29;20616;-72
2022/11/25 15:52:29;;;;;;;10.33;1.73;;;10.50;99.90;;;;;;4937810;29;20228;-74
2022/11/25 15:55:01;;;;;;;3.83;1.87;;;10.50;99.90;;;;;;4937033;29;20204;-73
2022/11/25 15:57:31;;;;;;;7.03;1.60;;;10.40;99.90;;;;;;4937148;29;20215;-73
2022/11/25 16:00:21;;;;;;;4.20;1.97;;;10.40;99.90;;;;;;4937373;29;20219;-72
2022/11/25 16:02:54;;;;;;;6.30;1.77;;;10.30;99.90;;;;;;4933210;29;20746;-73
2022/11/25 16:05:51;;;;;;;7.13;1.57;;;10.40;99.90;;;;;;4937223;29;20379;-73
2022/11/25 16:08:32;;;;;;;3.90;1.43;;;10.40;99.90;;;;;;4931841;29;20209;-73
2022/11/25 16:11:09;;;;;;;7.70;1.40;;;10.30;99.90;;;;;;4936525;29;20712;-75
2022/11/25 16:13:37;;;;;;;7.33;1.33;;;10.30;99.90;;;;;;4927395;29;20213;-72
2022/11/25 16:16:24;;;;;;;7.87;1.33;;;10.30;99.90;;;;;;4916482;29;20593;-73
2022/11/25 16:19:10;;;;;;;8.57;1.47;;;10.20;99.90;;;;;;4934090;29;20268;-72
2022/11/25 16:21:50;;;;;;;5.90;1.53;;;10.20;99.90;;;;;;4934784;29;20248;-73
2022/11/25 16:24:27;;;;;;;4.23;2.00;;;10.10;99.90;;;;;;4935384;29;20220;-72
2022/11/25 16:26:59;;;;;;;4.73;1.23;;;10.00;99.90;;;;;;4928836;29;20216;-73
2022/11/25 16:29:30;;;;;;;4.13;1.23;;;10.00;99.90;;;;;;4934412;29;20208;-73
2022/11/25 16:31:58;;;;;;;5.87;2.07;;;10.00;99.90;;;;;;4935047;29;20239;-71
2022/11/25 16:34:26;;;;;;;7.00;1.40;;;9.90;99.90;;;;;;4935130;29;20573;-72
2022/11/25 16:36:53;;;;;;;7.53;1.97;;;9.80;99.90;;;;;;4934221;29;20668;-72
2022/11/25 16:39:20;;;;;;;5.63;2.10;;;9.70;99.90;;;;;;4935085;29;20208;-72
2022/11/25 16:41:55;;;;;;;5.00;1.90;;;9.70;99.90;;;;;;4934756;29;20244;-71
2022/11/25 16:44:24;;;;;;;5.70;1.73;;;9.70;99.90;;;;;;4933914;29;20309;-71
2022/11/25 16:46:51;;;;;;;6.20;1.80;;;9.70;99.90;;;;;;4934910;29;20672;-72
2022/11/25 16:49:21;;;;;;;12.50;1.87;;;9.60;99.90;;;;;;4935060;29;20763;-72
2022/11/25 16:51:49;;;;;;;4.40;1.50;;;9.60;99.90;;;;;;4933978;29;20616;-72
2022/11/25 16:54:16;;;;;;;8.47;2.03;;;9.50;99.90;;;;;;4934690;29;20216;-72
2022/11/25 16:56:44;;;;;;;5.60;2.03;;;9.40;99.90;;;;;;4934544;29;20264;-74
2022/11/25 16:59:15;;;;;;;9.97;2.17;;;9.40;99.90;;;;;;4933886;29;20208;-73
2022/11/25 17:01:42;;;;;;;10.50;1.90;;;9.40;99.90;;;;;;4934450;29;20291;-71
2022/11/25 17:04:11;;;;;;;5.10;1.83;;;9.40;99.90;;;;;;4929497;29;20219;-73
2022/11/25 17:06:41;;;;;;;8.07;2.33;;;9.40;99.90;;;;;;4934105;29;20216;-72
2022/11/25 17:09:09;;;;;;;8.60;2.00;;;9.40;99.90;;;;;;4934411;29;20243;-72
2022/11/25 17:11:40;;;;;;;7.37;2.20;;;9.40;99.90;;;;;;4934198;29;20345;-71
2022/11/25 17:14:14;;;;;;;8.57;2.13;;;9.30;99.90;;;;;;4934080;29;20738;-73
2022/11/25 17:16:43;;;;;;;7.10;2.10;;;9.20;99.90;;;;;;4934798;29;20208;-72
2022/11/25 17:19:13;;;;;;;8.90;2.00;;;9.20;99.90;;;;;;4934507;29;20572;-72
2022/11/25 17:21:42;;;;;;;8.13;1.63;;;9.20;99.90;;;;;;4934531;29;20232;-73
2022/11/25 17:24:15;;;;;;;4.87;1.73;;;9.20;99.90;;;;;;4934714;29;20217;-75
2022/11/25 17:26:44;;;;;;;8.90;2.57;;;9.10;99.90;;;;;;4933454;29;20291;-72
2022/11/25 17:29:15;;;;;;;6.93;2.27;;;9.00;99.90;;;;;;4934341;29;20253;-75
2022/11/25 17:31:43;;;;;;;7.30;1.67;;;8.90;99.90;;;;;;4934176;29;20248;-75
2022/11/25 17:34:16;;;;;;;4.10;1.50;;;8.90;99.90;;;;;;4933604;29;20314;-74
2022/11/25 17:36:45;;;;;;;4.90;1.93;;;8.80;99.90;;;;;;4933727;29;20568;-73
2022/11/25 17:39:13;;;;;;;6.50;1.93;;;8.80;99.90;;;;;;4933671;29;20284;-73
2022/11/25 17:41:45;;;;;;;4.63;1.80;;;8.80;99.90;;;;;;4932995;29;20281;-73
2022/11/25 17:44:23;;;;;;;7.43;2.13;;;8.70;99.90;;;;;;4933284;29;20219;-71
2022/11/25 17:46:51;;;;;;;6.37;2.13;;;8.70;99.90;;;;;;4934128;29;20212;-75
2022/11/25 17:49:18;;;;;;;7.47;2.50;;;8.70;99.90;;;;;;4933628;29;20220;-74
2022/11/25 17:51:46;;;;;;;5.73;2.00;;;8.60;99.90;;;;;;4934078;29;20327;-74
2022/11/25 17:54:13;;;;;;;11.67;2.90;;;8.60;99.90;;;;;;4934468;29;20220;-75
2022/11/25 17:56:41;;;;;;;8.43;2.60;;;8.50;99.90;;;;;;4933345;29;20244;-74
2022/11/25 17:59:14;;;;;;;6.50;2.23;;;8.50;99.90;;;;;;4933717;29;20714;-75
2022/11/25 18:01:41;;;;;;;7.03;2.23;;;8.50;99.90;;;;;;4933861;29;20247;-73
2022/11/25 18:04:14;;;;;;;8.30;2.53;;;8.40;99.90;;;;;;4927597;29;20208;-74
2022/11/25 18:06:41;;;;;;;9.33;2.83;;;8.30;99.90;;;;;;4934215;29;20295;-73
2022/11/25 18:09:09;;;;;;;8.37;3.40;;;8.40;99.90;;;;;;4933711;29;20571;-73
2022/11/25 18:11:38;;;;;;;7.77;3.10;;;8.30;99.90;;;;;;4933444;29;20237;-74
2022/11/25 18:14:04;;;;;;;12.97;4.13;;;8.20;99.90;;;;;;4933735;29;20524;-74
2022/11/25 18:16:34;;;;;;;8.87;3.77;;;8.20;99.90;;;;;;4933882;29;20212;-74
2022/11/25 18:19:01;;;;;;;8.10;3.47;;;8.30;99.90;;;;;;4933120;29;20212;-77
2022/11/25 18:21:29;;;;;;;9.20;3.70;;;8.30;99.90;;;;;;4916659;29;20272;-73
2022/11/25 18:23:55;;;;;;;3.90;2.60;;;8.30;99.90;;;;;;4914320;29;20213;-74
2022/11/25 18:26:24;;;;;;;10.53;3.30;;;8.20;99.90;;;;;;4914323;29;20228;-74
2022/11/25 18:28:51;;;;;;;6.40;3.03;;;8.20;99.90;;;;;;4914968;29;20237;-74
2022/11/25 18:31:17;;;;;;;8.97;3.57;;;8.20;99.90;;;;;;4916211;29;20237;-73
2022/11/25 18:33:44;;;;;;;7.37;3.37;;;8.20;99.90;;;;;;4916262;29;20538;-73
2022/11/25 18:36:13;;;;;;;7.33;3.40;;;8.20;99.90;;;;;;4916223;29;20253;-74
2022/11/25 18:38:40;;;;;;;7.80;3.33;;;8.20;99.90;;;;;;4916069;29;20218;-74
2022/11/25 18:41:17;;;;;;;12.70;4.07;;;8.10;99.90;;;;;;4916003;29;20584;-74
2022/11/25 18:43:45;;;;;;;6.57;3.10;;;8.10;99.90;;;;;;4915996;29;20319;-73
2022/11/25 18:46:14;;;;;;;12.60;3.43;;;8.10;99.90;;;;;;4915623;29;20657;-73
2022/11/25 18:48:41;;;;;;;14.30;3.87;;;8.00;99.90;;;;;;4916010;29;20216;-73
2022/11/25 18:51:12;;;;;;;14.20;3.90;;;8.10;99.90;;;;;;4915710;29;20233;-73
2022/11/25 18:53:38;;;;;;;11.47;3.73;;;8.00;99.90;;;;;;4916073;29;20206;-74
2022/11/25 18:56:05;;;;;;;11.33;3.83;;;8.00;99.90;;;;;;4917424;29;20213;-74
2022/11/25 18:58:32;;;;;;;7.53;3.60;;;7.90;99.90;;;;;;4919233;29;20221;-75
2022/11/25 19:01:04;;;;;;;8.77;3.53;;;7.90;99.90;;;;;;4919278;29;20321;-74
2022/11/25 19:03:30;;;;;;;10.90;3.60;;;7.90;99.90;;;;;;4919349;29;20241;-74
2022/11/25 19:05:59;;;;;;;8.37;4.50;;;7.90;99.90;;;;;;4919415;29;20212;-75
2022/11/25 19:08:26;;;;;;;7.30;3.40;;;7.90;99.90;;;;;;4919241;29;20210;-74
2022/11/25 19:10:53;;;;;;;7.27;3.97;;;7.80;99.90;;;;;;4918693;29;20625;-73
2022/11/25 19:13:25;;;;;;;9.70;3.33;;;7.80;99.90;;;;;;4918768;29;20669;-75
2022/11/25 19:15:53;;;;;;;9.40;3.63;;;7.80;99.90;;;;;;4919106;29;20683;-74
2022/11/25 19:18:24;;;;;;;8.30;4.10;;;7.70;99.90;;;;;;4919071;29;20748;-75
2022/11/25 19:20:51;;;;;;;11.57;4.30;;;7.70;99.90;;;;;;4918987;29;20233;-74
2022/11/25 19:23:21;;;;;;;13.33;4.30;;;7.70;99.90;;;;;;4918673;29;20332;-74
2022/11/25 19:25:48;;;;;;;16.00;4.20;;;7.70;99.90;;;;;;4918523;29;20213;-75
2022/11/25 19:28:16;;;;;;;7.37;4.03;;;7.70;99.90;;;;;;4919103;29;20209;-74
2022/11/25 19:30:45;;;;;;;12.33;3.97;;;7.70;99.90;;;;;;4918096;29;20225;-75
2022/11/25 19:33:24;;;;;;;9.20;4.00;;;7.70;99.90;;;;;;4918208;29;20213;-74
2022/11/25 19:35:52;;;;;;;13.50;4.20;;;7.80;99.90;;;;;;4917968;29;20675;-75
2022/11/25 19:38:23;;;;;;;16.17;5.20;;;7.80;99.90;;;;;;4918052;29;20308;-75
2022/11/25 19:40:50;;;;;;;13.27;4.60;;;7.80;99.90;;;;;;4917960;29;20680;-74
2022/11/25 19:43:17;;;;;;;8.77;3.93;;;7.90;99.90;;;;;;4918211;29;20237;-73
2022/11/25 19:45:45;;;;;;;9.27;3.63;;;8.00;99.90;;;;;;4917997;29;20216;-74
2022/11/25 19:48:15;;;;;;;11.57;4.93;;;8.00;99.90;;;;;;4918038;29;20206;-74
2022/11/25 19:50:43;;;;;;;12.63;5.07;;;7.90;99.90;;;;;;4919018;29;20717;-75
2022/11/25 19:53:16;;;;;;;9.20;3.47;;;7.90;99.90;;;;;;4936650;29;20246;-73
2022/11/25 19:55:43;;;;;;;9.67;3.73;;;7.80;99.90;;;;;;4936594;29;20213;-73
2022/11/25 19:58:11;;;;;;;11.43;4.47;;;7.80;99.90;;;;;;4936968;29;20209;-73
2022/11/25 20:00:38;;;;;;;14.73;4.33;;;7.80;99.90;;;;;;4936872;29;20251;-73
2022/11/25 20:03:13;;;;;;;14.13;4.70;;;7.70;99.90;;;;;;4936914;29;20735;-73
2022/11/25 20:05:40;;;;;;;17.87;4.93;;;7.70;99.90;;;;;;4937433;29;20208;-74
2022/11/25 20:08:10;;;;;;;13.50;4.40;;;7.70;99.90;;;;;;4936560;29;20230;-73
2022/11/25 20:10:38;;;;;;;9.80;4.30;;;7.60;99.90;;;;;;4937180;29;20239;-73
2022/11/25 20:13:06;;;;;;;15.00;5.23;;;7.70;99.90;;;;;;4937445;29;20219;-75
2022/11/25 20:15:33;;;;;;;12.10;4.77;;;7.70;99.90;;;;;;4940133;29;20220;-73
2022/11/25 20:18:01;;;;;;;10.47;4.23;;;7.80;99.90;;;;;;4942394;29;20308;-73
2022/11/25 20:20:31;;;;;;;15.07;4.00;;;7.70;99.90;;;;;;4938983;29;20228;-73
2022/11/25 20:23:02;;;;;;;7.27;4.00;;;7.70;99.90;;;;;;4936970;29;20240;-73
2022/11/25 20:25:30;;;;;;;9.43;4.00;;;7.80;99.90;;;;;;4936803;29;20271;-73
2022/11/25 20:27:58;;;;;;;14.50;4.50;;;7.70;99.90;;;;;;4936903;29;20296;-74
2022/11/25 20:30:27;;;;;;;13.40;3.70;;;7.70;99.90;;;;;;4936466;29;20211;-73
2022/11/25 20:32:54;;;;;;;10.23;4.00;;;7.60;99.90;;;;;;4936687;29;20212;-73
2022/11/25 20:35:24;;;;;;;12.17;3.37;;;7.60;99.90;;;;;;4936574;29;20215;-73
2022/11/25 20:37:52;;;;;;;9.53;4.07;;;7.60;99.90;;;;;;4936725;29;20204;-73
2022/11/25 20:40:22;;;;;;;10.37;3.77;;;7.50;99.90;;;;;;4936442;29;20209;-72
2022/11/25 20:42:50;;;;;;;9.40;4.20;;;7.50;99.90;;;;;;4936273;29;20247;-73
2022/11/25 20:45:20;;;;;;;8.20;3.73;;;7.40;99.90;;;;;;4936737;29;20209;-73
2022/11/25 20:47:49;;;;;;;11.70;3.70;;;7.50;99.90;;;;;;4936636;29;20304;-72
2022/11/25 20:50:17;;;;;;;9.43;3.77;;;7.40;99.90;;;;;;4936575;29;20299;-73
2022/11/25 20:52:44;;;;;;;8.77;3.70;;;7.40;99.90;;;;;;4936396;29;20550;-73
2022/11/25 20:55:17;;;;;;;7.87;3.10;;;7.40;99.90;;;;;;4936278;29;20297;-73
2022/11/25 20:57:44;;;;;;;9.17;3.40;;;7.30;99.90;;;;;;4936478;29;20296;-73
2022/11/25 21:00:16;;;;;;;10.97;3.30;;;7.40;99.90;;;;;;4936335;29;20579;-74
2022/11/25 21:02:44;;;;;;;10.07;3.63;;;7.40;99.90;;;;;;4936011;29;20237;-74
2022/11/25 21:05:11;;;;;;;12.70;3.70;;;7.30;99.90;;;;;;4936205;29;20226;-74
2022/11/25 21:07:38;;;;;;;8.23;3.47;;;7.30;99.90;;;;;;4935894;29;20227;-74
2022/11/25 21:10:21;;;;;;;7.17;3.43;;;7.30;99.90;;;;;;4935924;29;20211;-74
2022/11/25 21:12:48;;;;;;;9.07;3.70;;;7.30;99.90;;;;;;4936211;29;20295;-74
2022/11/25 21:15:17;;;;;;;11.83;4.03;;;7.30;99.90;;;;;;4935834;29;20295;-74
2022/11/25 21:17:45;;;;;;;7.00;3.30;;;7.40;99.90;;;;;;4935663;29;20213;-74
2022/11/25 21:20:13;;;;;;;6.07;3.70;;;7.30;99.90;;;;;;4935504;29;20219;-74
2022/11/25 21:22:42;;;;;;;9.00;3.37;;;7.30;99.90;;;;;;4935610;29;20247;-74
2022/11/25 21:25:12;;;;;;;10.37;3.90;;;7.30;99.90;;;;;;4961444;23;20231;-79
2022/11/25 21:27:39;;;;;;;12.93;3.97;;;7.30;99.90;;;;;;4955155;28;20208;-79
2022/11/25 21:30:07;;;;;;;12.20;3.73;;;7.40;99.90;;;;;;4954677;28;20596;-78
2022/11/25 21:32:34;;;;;;;10.50;3.33;;;7.40;99.90;;;;;;4935408;29;20235;-74
2022/11/25 21:35:04;;;;;;;11.30;4.23;;;7.40;99.90;;;;;;4936170;29;20209;-75
2022/11/25 21:37:34;;;;;;;11.77;3.53;;;7.30;99.90;;;;;;4936262;29;20212;-73
2022/11/25 21:40:01;;;;;;;8.37;3.73;;;7.40;99.90;;;;;;4935979;29;20315;-73
2022/11/25 21:42:29;;;;;;;9.93;3.27;;;7.30;99.90;;;;;;4936011;29;20695;-79
2022/11/25 21:44:56;;;;;;;11.17;3.40;;;7.30;99.90;;;;;;4936052;29;20708;-75
2022/11/25 21:47:25;;;;;;;7.80;3.17;;;7.30;99.90;;;;;;4936011;29;20208;-76
2022/11/25 21:49:53;;;;;;;9.93;3.20;;;7.40;99.90;;;;;;4936345;29;20213;-76
2022/11/25 21:52:21;;;;;;;10.27;3.60;;;7.40;99.90;;;;;;4935611;29;20684;-74
2022/11/25 21:54:48;;;;;;;7.50;3.57;;;7.40;99.90;;;;;;4935612;29;20213;-76
2022/11/25 21:57:16;;;;;;;8.07;3.67;;;7.30;99.90;;;;;;4936164;29;20235;-81
2022/11/25 21:59:45;;;;;;;16.37;4.00;;;7.30;99.90;;;;;;4935963;29;20213;-80
2022/11/25 22:02:17;;;;;;;8.10;3.20;;;7.20;99.90;;;;;;4936096;29;20229;-81
2022/11/25 22:04:44;;;;;;;12.77;4.40;;;7.20;99.90;;;;;;4936306;29;20215;-79
2022/11/25 22:07:11;;;;;;;8.33;3.50;;;7.30;99.90;;;;;;4935874;29;20247;-81
2022/11/25 22:09:39;;;;;;;8.47;3.20;;;7.20;99.90;;;;;;4935412;29;20212;-81
2022/11/25 22:12:06;;;;;;;9.83;3.47;;;7.20;99.90;;;;;;4935441;29;20720;-81
2022/11/25 22:14:36;;;;;;;11.57;3.60;;;7.10;99.90;;;;;;4935747;29;20211;-78
2022/11/25 22:17:06;;;;;;;16.40;3.17;;;7.20;99.90;;;;;;4935710;29;20233;-80
2022/11/25 22:19:33;;;;;;;13.30;3.63;;;7.20;99.90;;;;;;4935618;29;20296;-81
2022/11/25 22:22:00;;;;;;;10.20;3.73;;;7.30;99.90;;;;;;4935554;29;20243;-80
2022/11/25 22:24:27;;;;;;;9.10;3.97;;;7.30;99.90;;;;;;4935448;29;20233;-79
2022/11/25 22:26:55;;;;;;;13.80;3.50;;;7.30;99.90;;;;;;4935242;29;20540;-79
2022/11/25 22:29:25;;;;;;;9.73;3.33;;;7.20;99.90;;;;;;4935928;29;20247;-80
2022/11/25 22:31:52;;;;;;;8.07;3.47;;;7.30;99.90;;;;;;4934868;29;20222;-81
2022/11/25 22:34:21;;;;;;;9.60;3.43;;;7.30;99.90;;;;;;4920302;29;20213;-79
2022/11/25 22:36:49;;;;;;;14.13;3.90;;;7.30;99.90;;;;;;4920261;29;20244;-80
2022/11/25 22:39:18;;;;;;;10.60;3.17;;;7.30;99.90;;;;;;4920077;29;20232;-80
2022/11/25 22:41:48;;;;;;;12.20;3.60;;;7.30;99.90;;;;;;4921188;29;20273;-80
2022/11/25 22:44:22;;;;;;;8.27;2.30;;;7.30;99.90;;;;;;4928105;29;20248;-79